Time;durP1;ratioP1;P1;durP2;ratioP2;P2;SDS_P1;SDS_P2;PMS_P1;PMS_P2;Temp;Humidity;BMP_temperature;BMP_pressure;BME280_temperature;BME280_humidity;BME280_pressure;Samples;Min_cycle;Max_cycle;Signal;HPM_P1;HPM_P2
2022/03/04 00:01:10;;;;;;;16.70;10.47;;;;;;;-1.87;70.00;94477.16;5039787;28;20230;-66
2022/03/04 00:03:57;;;;;;;19.60;10.43;;;;;;;-2.15;69.17;94475.31;5040905;28;20582;-66
2022/03/04 00:06:43;;;;;;;20.60;14.13;;;;;;;-2.04;69.36;94484.09;5047507;28;20258;-66
2022/03/04 00:09:29;;;;;;;30.30;17.17;;;;;;;-2.19;70.82;94477.28;5041573;28;20269;-66
2022/03/04 00:12:15;;;;;;;44.27;25.23;;;;;;;-2.00;71.29;94476.81;5044886;28;20257;-66
2022/03/04 00:15:01;;;;;;;26.43;17.37;;;;;;;-1.84;71.46;94479.81;5039677;28;20203;-66
2022/03/04 00:17:47;;;;;;;19.20;13.73;;;;;;;-1.92;70.72;94480.22;5027109;28;20206;-66
2022/03/04 00:20:33;;;;;;;18.03;12.07;;;;;;;-1.84;71.99;94492.44;5039837;28;20225;-66
2022/03/04 00:23:19;;;;;;;16.23;10.93;;;;;;;-1.83;69.06;94488.63;5047271;28;20211;-66
2022/03/04 00:26:05;;;;;;;17.13;11.40;;;;;;;-1.78;64.96;94482.88;5048830;28;20212;-66
2022/03/04 00:28:51;;;;;;;19.20;11.50;;;;;;;-1.63;64.09;94484.34;5037150;28;20209;-65
2022/03/04 00:31:39;;;;;;;21.83;12.23;;;;;;;-1.57;63.10;94486.22;5018671;28;20309;-66
2022/03/04 00:34:25;;;;;;;19.53;11.17;;;;;;;-1.57;62.99;94478.19;5051112;28;20194;-66
2022/03/04 00:37:11;;;;;;;17.50;12.10;;;;;;;-1.51;62.61;94491.94;5048345;28;20519;-66
2022/03/04 00:39:57;;;;;;;19.17;10.77;;;;;;;-1.41;64.30;94496.47;5045720;28;20198;-66
2022/03/04 00:42:43;;;;;;;19.27;11.57;;;;;;;-1.44;62.26;94487.28;5038212;28;20214;-65
2022/03/04 00:45:29;;;;;;;21.23;12.90;;;;;;;-1.35;61.37;94492.22;5037880;28;20209;-66
2022/03/04 00:48:15;;;;;;;20.33;12.50;;;;;;;-1.27;60.81;94493.69;5028964;28;20207;-66
2022/03/04 00:51:01;;;;;;;23.30;12.87;;;;;;;-1.14;59.99;94494.00;5042225;28;20268;-66
2022/03/04 00:53:47;;;;;;;22.67;12.97;;;;;;;-1.16;60.56;94493.63;5039482;28;20198;-66
2022/03/04 00:56:32;;;;;;;21.57;13.40;;;;;;;-1.23;60.43;94497.13;5047487;28;20197;-66
2022/03/04 00:59:18;;;;;;;20.83;12.43;;;;;;;-1.21;60.69;94489.47;5045643;28;20286;-65
2022/03/04 01:02:04;;;;;;;21.67;11.83;;;;;;;-1.27;60.88;94496.38;5045258;28;20958;-66
2022/03/04 01:04:50;;;;;;;19.43;12.37;;;;;;;-1.28;61.19;94495.63;5042222;28;20645;-66
2022/03/04 01:07:36;;;;;;;20.57;13.10;;;;;;;-1.30;61.02;94487.22;5039781;28;20222;-66
2022/03/04 01:10:22;;;;;;;23.43;13.17;;;;;;;-1.28;61.25;94486.81;5028813;28;20253;-65
2022/03/04 01:13:09;;;;;;;25.87;12.93;;;;;;;-1.21;60.83;94481.41;5028828;28;20694;-65
2022/03/04 01:15:56;;;;;;;20.37;12.63;;;;;;;-1.27;60.96;94469.56;5036536;28;20198;-65
2022/03/04 01:18:42;;;;;;;23.17;14.03;;;;;;;-1.46;61.85;94470.84;5026610;28;20269;-66
2022/03/04 01:21:28;;;;;;;21.60;12.57;;;;;;;-1.41;62.63;94488.44;5039691;28;20214;-66
2022/03/04 01:24:14;;;;;;;22.00;12.60;;;;;;;-1.50;62.49;94474.69;5045947;28;20293;-66
2022/03/04 01:27:00;;;;;;;22.03;13.37;;;;;;;-1.45;62.63;94468.94;5049011;28;20190;-66
2022/03/04 01:29:46;;;;;;;20.20;12.70;;;;;;;-1.54;62.46;94466.69;5033797;28;20635;-67
2022/03/04 01:32:32;;;;;;;18.57;11.93;;;;;;;-1.65;63.13;94463.31;5042760;28;20233;-66
2022/03/04 01:35:18;;;;;;;20.90;11.77;;;;;;;-1.72;63.72;94459.88;5048754;28;20602;-66
2022/03/04 01:38:04;;;;;;;18.67;11.90;;;;;;;-1.76;67.63;94465.25;5033727;28;20195;-66
2022/03/04 01:40:50;;;;;;;15.93;10.80;;;;;;;-2.06;68.85;94462.31;5047096;28;20284;-66
2022/03/04 01:43:36;;;;;;;18.53;12.27;;;;;;;-1.87;66.96;94461.09;5039329;28;20199;-66
2022/03/04 01:46:30;;;;;;;22.87;12.33;;;;;;;-1.69;65.29;94456.44;5030900;28;20642;-66
2022/03/04 01:49:16;;;;;;;18.37;12.53;;;;;;;-1.64;63.88;94464.81;5049042;28;20664;-66
2022/03/04 01:52:03;;;;;;;22.87;12.50;;;;;;;-1.60;63.98;94457.53;5050975;28;20217;-66
2022/03/04 01:54:49;;;;;;;20.97;12.40;;;;;;;-1.63;65.57;94471.69;5046554;28;20207;-66
2022/03/04 01:57:36;;;;;;;21.03;13.17;;;;;;;-1.56;64.89;94454.84;5029531;28;20322;-66
2022/03/04 02:00:22;;;;;;;21.17;13.30;;;;;;;-1.57;64.18;94450.63;5034531;28;20203;-66
2022/03/04 02:03:10;;;;;;;20.80;13.07;;;;;;;-1.59;63.53;94461.72;5039037;28;20325;-66
2022/03/04 02:05:56;;;;;;;18.87;12.73;;;;;;;-1.70;63.95;94454.91;5041523;28;20194;-66
2022/03/04 02:08:42;;;;;;;20.87;12.80;;;;;;;-1.68;64.25;94458.72;5032439;28;20194;-66
2022/03/04 02:11:28;;;;;;;22.70;13.10;;;;;;;-1.62;64.55;94456.41;5041908;28;20353;-66
2022/03/04 02:14:15;;;;;;;20.57;13.00;;;;;;;-1.55;64.94;94453.69;5048015;28;20194;-66
2022/03/04 02:17:01;;;;;;;21.90;12.87;;;;;;;-1.56;64.19;94457.53;5028859;28;20183;-66
2022/03/04 02:19:53;;;;;;;21.43;14.17;;;;;;;-1.58;63.86;94447.19;5032782;28;20194;-66
2022/03/04 02:22:39;;;;;;;27.10;13.67;;;;;;;-1.60;63.35;94454.88;5043861;28;20289;-66
2022/03/04 02:25:24;;;;;;;28.97;13.07;;;;;;;-1.61;63.47;94453.31;5052073;28;20181;-66
2022/03/04 02:28:10;;;;;;;21.77;12.80;;;;;;;-1.64;64.37;94448.00;5067158;28;20220;-66
2022/03/04 02:30:56;;;;;;;20.73;12.77;;;;;;;-1.55;63.22;94453.69;5043665;28;20218;-66
2022/03/04 02:33:43;;;;;;;26.37;13.00;;;;;;;-1.59;64.05;94448.34;5050498;28;20186;-66
2022/03/04 02:36:29;;;;;;;19.00;12.17;;;;;;;-1.69;63.71;94453.75;5047676;28;20202;-66
2022/03/04 02:39:15;;;;;;;23.83;13.50;;;;;;;-1.78;64.48;94445.41;5045102;28;20210;-66
2022/03/04 02:42:01;;;;;;;25.03;12.87;;;;;;;-1.77;64.47;94453.03;5050777;28;20214;-67
2022/03/04 02:44:47;;;;;;;25.03;14.03;;;;;;;-1.79;65.07;94439.28;5048861;28;20190;-67
2022/03/04 02:47:33;;;;;;;22.33;14.20;;;;;;;-1.76;68.34;94440.41;5044341;28;20191;-66
2022/03/04 02:50:19;;;;;;;24.83;14.40;;;;;;;-1.75;69.19;94439.25;5036048;28;20203;-66
2022/03/04 02:53:05;;;;;;;24.30;15.33;;;;;;;-1.75;70.37;94439.25;5049996;28;20729;-67
2022/03/04 02:55:51;;;;;;;17.23;11.83;;;;;;;-1.97;72.89;94445.84;5049561;28;21017;-66
2022/03/04 02:58:37;;;;;;;18.40;11.57;;;;;;;-1.98;73.04;94439.75;5042672;28;20593;-67
2022/03/04 03:01:24;;;;;;;21.40;12.97;;;;;;;-2.10;72.75;94432.13;5037311;28;20306;-66
2022/03/04 03:04:10;;;;;;;18.83;12.93;;;;;;;-2.44;73.57;94427.66;5040762;28;20202;-67
2022/03/04 03:06:57;;;;;;;19.73;12.83;;;;;;;-2.34;74.99;94438.31;5037827;28;20217;-66
2022/03/04 03:09:44;;;;;;;18.73;12.00;;;;;;;-2.53;74.03;94433.41;5048873;28;20204;-67
2022/03/04 03:12:30;;;;;;;19.63;12.70;;;;;;;-2.87;75.51;94430.38;5029905;28;20667;-66
2022/03/04 03:15:16;;;;;;;20.57;12.90;;;;;;;-2.84;75.01;94424.31;5048226;28;20285;-66
2022/03/04 03:18:02;;;;;;;22.87;12.50;;;;;;;-2.64;74.79;94430.75;5048189;28;20232;-66
2022/03/04 03:20:48;;;;;;;22.17;13.53;;;;;;;-2.52;74.35;94416.22;5045157;28;20673;-66
2022/03/04 03:23:34;;;;;;;22.47;13.23;;;;;;;-2.70;73.40;94420.84;5042007;28;20191;-66
2022/03/04 03:26:20;;;;;;;24.47;13.23;;;;;;;-2.66;73.73;94427.72;5044464;28;20248;-66
2022/03/04 03:29:06;;;;;;;21.63;14.70;;;;;;;-2.51;74.73;94423.84;5041128;28;20206;-66
2022/03/04 03:31:52;;;;;;;25.10;13.63;;;;;;;-2.76;75.74;94417.78;5040449;28;20248;-66
2022/03/04 03:34:39;;;;;;;22.67;13.23;;;;;;;-3.16;76.54;94422.78;5048741;28;20191;-66
2022/03/04 03:37:25;;;;;;;20.27;13.40;;;;;;;-3.15;77.01;94417.06;5037717;28;20222;-67
2022/03/04 03:40:11;;;;;;;22.40;13.43;;;;;;;-3.61;77.06;94416.25;5038598;28;20205;-66
2022/03/04 03:42:57;;;;;;;25.73;13.87;;;;;;;-3.50;81.15;94443.72;5038228;28;20214;-67
2022/03/04 03:45:43;;;;;;;20.70;13.30;;;;;;;-3.17;79.21;94429.28;5029831;28;20206;-66
2022/03/04 03:48:29;;;;;;;20.90;13.60;;;;;;;-3.46;78.30;94423.13;5028049;28;20250;-66
2022/03/04 03:51:15;;;;;;;22.57;12.93;;;;;;;-3.41;80.09;94428.09;5046376;28;20214;-66
2022/03/04 03:54:01;;;;;;;21.10;13.30;;;;;;;-3.68;79.49;94424.25;5029161;28;20233;-66
2022/03/04 03:56:47;;;;;;;18.70;12.10;;;;;;;-3.56;79.19;94436.47;5039910;28;20195;-66
2022/03/04 03:59:33;;;;;;;19.47;12.10;;;;;;;-3.71;80.33;94433.78;5032518;28;20669;-66
2022/03/04 04:02:19;;;;;;;20.03;13.03;;;;;;;-3.78;81.75;94448.97;5037611;28;20225;-67
2022/03/04 04:05:06;;;;;;;19.30;13.00;;;;;;;-3.77;82.56;94445.19;5044716;28;20194;-66
2022/03/04 04:07:52;;;;;;;18.20;12.00;;;;;;;-3.77;81.93;94453.94;5046819;28;20665;-67
2022/03/04 04:10:38;;;;;;;22.20;13.20;;;;;;;-3.68;81.27;94460.84;5041835;28;20214;-66
2022/03/04 04:13:24;;;;;;;24.57;13.57;;;;;;;-3.76;82.16;94455.47;5027528;28;20701;-66
2022/03/04 04:16:10;;;;;;;23.57;13.87;;;;;;;-3.88;83.53;94461.16;5031769;28;20187;-66
2022/03/04 04:18:56;;;;;;;21.97;13.77;;;;;;;-4.10;85.65;94448.88;5048069;28;20182;-67
2022/03/04 04:21:42;;;;;;;20.07;12.43;;;;;;;-4.12;86.12;94466.38;5043831;28;20221;-65
2022/03/04 04:24:28;;;;;;;24.13;13.70;;;;;;;-4.15;86.73;94467.91;5047414;28;20260;-65
2022/03/04 04:27:14;;;;;;;19.50;11.87;;;;;;;-4.27;87.04;94456.78;5048136;28;20650;-65
2022/03/04 04:30:00;;;;;;;18.43;12.97;;;;;;;-4.11;88.73;94468.69;5033688;28;20550;-65
2022/03/04 04:32:46;;;;;;;21.33;12.87;;;;;;;-3.73;87.07;94456.63;5049435;28;20264;-65
2022/03/04 04:35:32;;;;;;;19.20;13.10;;;;;;;-3.66;85.38;94461.25;5044780;28;20543;-65
2022/03/04 04:38:18;;;;;;;20.50;12.60;;;;;;;-3.74;85.21;94460.44;5045107;28;20206;-65
2022/03/04 04:41:06;;;;;;;21.63;12.93;;;;;;;-3.82;84.89;94466.91;5044354;28;20589;-65
2022/03/04 04:43:52;;;;;;;19.93;12.07;;;;;;;-3.82;84.20;94469.56;5032010;28;20278;-65
2022/03/04 04:46:38;;;;;;;24.70;12.67;;;;;;;-3.90;83.75;94466.09;5029353;28;20216;-65
2022/03/04 04:49:25;;;;;;;21.17;13.33;;;;;;;-4.03;86.12;94480.91;5036476;28;20220;-65
2022/03/04 04:52:11;;;;;;;19.10;12.73;;;;;;;-4.01;85.85;94469.88;5043419;28;20269;-66
2022/03/04 04:54:57;;;;;;;24.97;13.47;;;;;;;-4.05;84.86;94483.19;5049636;28;20559;-65
2022/03/04 04:57:43;;;;;;;18.87;13.00;;;;;;;-4.06;84.46;94483.56;5045089;28;20345;-65
2022/03/04 05:00:29;;;;;;;20.93;12.67;;;;;;;-4.11;84.00;94484.69;5048886;28;20213;-66
2022/03/04 05:03:14;;;;;;;22.13;12.53;;;;;;;-4.25;84.82;94481.94;5035713;28;20594;-67
2022/03/04 05:06:00;;;;;;;22.60;13.90;;;;;;;-4.27;86.97;94484.22;5029784;28;20198;-67
2022/03/04 05:08:46;;;;;;;21.00;13.03;;;;;;;-4.27;86.94;94470.13;5045398;28;20209;-66
2022/03/04 05:11:32;;;;;;;18.53;12.23;;;;;;;-4.14;87.94;94495.34;5044219;28;20234;-67
2022/03/04 05:14:18;;;;;;;26.60;14.67;;;;;;;-4.16;86.96;94490.38;5041380;28;20279;-67
2022/03/04 05:17:05;;;;;;;24.30;14.97;;;;;;;-4.01;86.73;94494.66;5043558;28;20285;-67
2022/03/04 05:19:51;;;;;;;24.33;13.70;;;;;;;-4.08;85.00;94499.94;5047719;28;20193;-67
2022/03/04 05:22:37;;;;;;;24.47;14.40;;;;;;;-3.99;85.52;94491.59;5047487;28;20261;-67
2022/03/04 05:25:23;;;;;;;22.77;14.83;;;;;;;-3.82;82.22;94504.97;5044483;28;20198;-67
2022/03/04 05:28:08;;;;;;;20.93;13.63;;;;;;;-3.58;81.27;94492.13;5044591;28;20413;-67
2022/03/04 05:30:54;;;;;;;24.27;13.80;;;;;;;-3.53;78.43;94489.09;5045297;28;20276;-68
2022/03/04 05:33:40;;;;;;;20.87;12.77;;;;;;;-3.57;78.26;94497.09;5046716;28;20240;-67
2022/03/04 05:36:26;;;;;;;20.53;13.03;;;;;;;-3.56;78.02;94500.53;5039973;28;20198;-67
2022/03/04 05:39:12;;;;;;;23.30;13.23;;;;;;;-3.61;77.93;94506.97;5046501;28;20712;-67
2022/03/04 05:41:58;;;;;;;22.43;13.60;;;;;;;-3.66;78.49;94502.00;5040086;28;20226;-68
2022/03/04 05:44:44;;;;;;;20.00;13.53;;;;;;;-3.65;78.35;94516.13;5041898;28;20247;-67
2022/03/04 05:47:31;;;;;;;26.67;12.73;;;;;;;-3.65;79.33;94514.22;5033191;28;20199;-67
2022/03/04 05:50:17;;;;;;;23.60;13.90;;;;;;;-3.78;79.37;94521.78;5037130;28;20194;-67
2022/03/04 05:53:03;;;;;;;23.77;12.83;;;;;;;-3.77;81.40;94525.22;5042812;28;20218;-67
2022/03/04 05:55:49;;;;;;;25.27;13.07;;;;;;;-3.72;80.43;94525.59;5041330;28;20191;-68
2022/03/04 05:58:37;;;;;;;20.90;12.93;;;;;;;-3.48;80.67;94520.75;5046652;28;20190;-68
2022/03/04 06:01:23;;;;;;;28.00;13.67;;;;;;;-3.40;79.63;94527.63;5055170;28;20187;-67
2022/03/04 06:04:08;;;;;;;24.17;13.50;;;;;;;-3.48;79.08;94539.41;5040011;28;20221;-68
2022/03/04 06:06:56;;;;;;;20.30;12.33;;;;;;;-3.42;77.68;94552.03;5047380;28;20206;-68
2022/03/04 06:09:41;;;;;;;27.27;12.40;;;;;;;-3.35;78.07;94549.38;5047122;28;20206;-68
2022/03/04 06:12:27;;;;;;;18.50;12.90;;;;;;;-3.27;78.33;94534.91;5031712;28;20222;-67
2022/03/04 06:15:13;;;;;;;22.37;13.60;;;;;;;-3.05;80.14;94557.06;5036714;28;20222;-68
2022/03/04 06:17:59;;;;;;;27.00;13.73;;;;;;;-3.09;76.93;94554.38;5042993;28;20205;-68
2022/03/04 06:20:46;;;;;;;22.07;13.97;;;;;;;-3.03;78.37;94566.25;5042218;28;20190;-68
2022/03/04 06:23:32;;;;;;;21.97;13.30;;;;;;;-3.09;79.31;94569.66;5039465;28;20597;-68
2022/03/04 06:26:18;;;;;;;25.00;13.37;;;;;;;-2.91;80.61;94560.53;5033739;28;20462;-68
2022/03/04 06:29:03;;;;;;;31.63;15.07;;;;;;;-2.85;79.04;94555.59;5039764;28;20654;-68
2022/03/04 06:31:49;;;;;;;25.47;15.33;;;;;;;-2.85;80.31;94563.59;5056553;28;20230;-68
2022/03/04 06:34:35;;;;;;;25.73;15.23;;;;;;;-2.68;80.60;94574.28;5049971;28;20205;-68
2022/03/04 06:37:21;;;;;;;20.90;14.20;;;;;;;-3.10;80.96;94568.88;5033545;28;20206;-68
2022/03/04 06:40:08;;;;;;;22.37;13.07;;;;;;;-3.02;81.31;94573.09;5048357;28;20368;-68
2022/03/04 06:42:53;;;;;;;22.83;13.60;;;;;;;-3.27;82.48;94571.50;5032204;28;20218;-68
2022/03/04 06:45:44;;;;;;;24.50;14.00;;;;;;;-3.24;83.89;94573.44;5030210;28;20190;-68
2022/03/04 06:48:30;;;;;;;21.03;13.20;;;;;;;-2.92;81.98;94575.03;5039881;28;20285;-68
2022/03/04 06:51:16;;;;;;;24.30;14.17;;;;;;;-2.90;81.69;94586.09;5054977;28;20249;-68
2022/03/04 06:54:03;;;;;;;23.93;13.87;;;;;;;-2.96;81.03;94587.63;5063187;28;20194;-64
2022/03/04 06:56:49;;;;;;;25.50;14.10;;;;;;;-2.70;80.48;94581.19;5054918;28;20186;-64
2022/03/04 06:59:34;;;;;;;24.03;15.23;;;;;;;-2.68;77.39;94590.34;5042590;28;20254;-65
2022/03/04 07:02:21;;;;;;;26.63;15.63;;;;;;;-2.40;75.13;94594.16;5045876;28;20761;-64
2022/03/04 07:05:08;;;;;;;28.13;14.73;;;;;;;-2.16;73.95;94590.72;5046057;28;20198;-64
2022/03/04 07:07:54;;;;;;;30.03;14.87;;;;;;;-2.14;71.52;94586.53;5038998;28;20202;-64
2022/03/04 07:10:43;;;;;;;25.17;14.10;;;;;;;-2.21;72.14;94588.44;5045145;28;20222;-64
2022/03/04 07:13:29;;;;;;;28.63;15.70;;;;;;;-2.00;70.51;94602.53;5040771;28;20657;-62
2022/03/04 07:16:15;;;;;;;25.90;14.03;;;;;;;-1.98;69.10;94583.44;5049613;28;20194;-62
2022/03/04 07:19:00;;;;;;;30.20;14.77;;;;;;;-1.84;69.19;94592.22;5044875;28;20690;-63
2022/03/04 07:21:46;;;;;;;25.73;14.53;;;;;;;-1.88;67.72;94604.81;5058084;28;20202;-65
2022/03/04 07:24:32;;;;;;;23.33;13.27;;;;;;;-1.95;66.36;94599.47;5051071;28;20195;-64
2022/03/04 07:27:18;;;;;;;20.53;12.90;;;;;;;-1.79;66.82;94599.84;5041527;28;20198;-62
2022/03/04 07:30:10;;;;;;;21.60;13.07;;;;;;;-1.91;65.53;94604.81;5040084;28;20199;-62
2022/03/04 07:32:56;;;;;;;22.37;13.90;;;;;;;-1.79;65.23;94604.44;5038031;28;20215;-62
2022/03/04 07:35:45;;;;;;;21.20;12.93;;;;;;;-1.64;64.78;94603.25;5030787;28;20206;-62
2022/03/04 07:38:31;;;;;;;25.63;13.97;;;;;;;-1.67;64.54;94604.78;5049953;28;20220;-62
2022/03/04 07:41:17;;;;;;;23.40;12.97;;;;;;;-1.54;64.46;94608.56;5046835;28;20213;-67
2022/03/04 07:44:03;;;;;;;22.17;13.67;;;;;;;-1.44;64.13;94609.69;5036053;28;20190;-64
2022/03/04 07:46:50;;;;;;;25.37;13.70;;;;;;;-1.45;63.54;94622.34;5041117;28;20198;-64
2022/03/04 07:49:35;;;;;;;23.50;12.73;;;;;;;-1.30;63.25;94623.81;5045909;28;20680;-64
2022/03/04 07:52:22;;;;;;;22.30;13.43;;;;;;;-1.25;63.45;94615.38;5040184;28;20227;-64
2022/03/04 07:55:10;;;;;;;20.30;11.90;;;;;;;-0.98;62.34;94623.66;5041793;28;20195;-66
2022/03/04 07:57:56;;;;;;;22.03;13.13;;;;;;;-0.89;59.68;94617.88;5039566;28;20256;-65
2022/03/04 08:00:42;;;;;;;21.67;12.80;;;;;;;-0.84;60.03;94620.16;5042190;28;20201;-64
2022/03/04 08:03:28;;;;;;;22.63;12.83;;;;;;;-0.68;59.15;94620.47;5040128;28;20314;-64
2022/03/04 08:06:13;;;;;;;20.33;13.13;;;;;;;-0.57;59.33;94629.97;5041912;28;20197;-64
2022/03/04 08:09:00;;;;;;;21.07;12.77;;;;;;;-0.46;59.41;94619.91;5046868;28;20684;-64
2022/03/04 08:11:46;;;;;;;22.20;13.30;;;;;;;-0.33;58.24;94620.22;5039226;28;20222;-64
2022/03/04 08:14:32;;;;;;;24.17;13.80;;;;;;;-0.39;58.91;94622.56;5049763;28;20190;-65
2022/03/04 08:17:18;;;;;;;22.93;13.40;;;;;;;-0.14;57.80;94628.50;5050036;28;20194;-64
2022/03/04 08:20:05;;;;;;;20.80;12.83;;;;;;;-0.03;57.99;94631.88;5045224;28;20316;-65
2022/03/04 08:22:51;;;;;;;21.50;13.37;;;;;;;0.17;57.07;94637.44;5042645;28;20206;-64
2022/03/04 08:25:36;;;;;;;21.70;13.20;;;;;;;0.14;56.91;94632.88;5042235;28;20194;-65
2022/03/04 08:28:23;;;;;;;20.57;12.80;;;;;;;0.37;56.59;94629.63;5034800;28;20875;-65
2022/03/04 08:31:12;;;;;;;22.03;13.40;;;;;;;0.64;55.98;94641.25;5027387;28;20223;-64
2022/03/04 08:33:59;;;;;;;17.93;12.43;;;;;;;0.72;54.59;94629.25;5044961;28;20202;-64
2022/03/04 08:36:45;;;;;;;23.60;12.73;;;;;;;0.76;54.01;94641.50;5043186;28;20584;-64
2022/03/04 08:39:31;;;;;;;23.17;12.90;;;;;;;0.97;54.41;94638.56;5034439;28;20189;-64
2022/03/04 08:42:17;;;;;;;23.33;13.07;;;;;;;0.96;53.04;94634.34;5042859;28;20214;-62
2022/03/04 08:45:03;;;;;;;21.00;13.20;;;;;;;1.08;53.44;94646.50;5044643;28;20209;-66
2022/03/04 08:47:49;;;;;;;20.97;12.33;;;;;;;1.12;53.07;94639.16;5048526;28;20183;-67
2022/03/04 08:50:35;;;;;;;26.67;13.87;;;;;;;1.20;52.95;94637.91;5046222;28;20662;-66
2022/03/04 08:53:21;;;;;;;20.27;13.13;;;;;;;1.40;52.15;94641.47;5043607;28;20221;-66
2022/03/04 08:56:07;;;;;;;21.83;13.60;;;;;;;1.60;50.95;94636.19;5047729;28;20240;-66
2022/03/04 08:58:53;;;;;;;22.13;12.93;;;;;;;1.77;51.47;94632.50;5029179;28;20198;-66
2022/03/04 09:01:39;;;;;;;18.13;12.23;;;;;;;1.88;49.48;94641.19;5034880;28;20210;-66
2022/03/04 09:04:25;;;;;;;20.60;13.37;;;;;;;1.68;48.48;94633.00;5045934;28;20247;-66
2022/03/04 09:07:11;;;;;;;20.20;13.20;;;;;;;1.93;49.51;94640.72;5048050;28;20186;-66
2022/03/04 09:09:56;;;;;;;27.33;14.43;;;;;;;2.13;48.64;94638.88;5045168;28;20206;-66
2022/03/04 09:12:42;;;;;;;20.53;13.43;;;;;;;2.39;47.67;94636.09;5027151;28;20227;-67
2022/03/04 09:15:28;;;;;;;22.37;13.60;;;;;;;2.46;46.57;94640.63;5035385;28;20289;-67
2022/03/04 09:18:14;;;;;;;20.77;13.30;;;;;;;2.71;46.48;94640.19;5047168;28;20198;-67
2022/03/04 09:21:00;;;;;;;18.93;12.23;;;;;;;2.66;45.36;94625.25;5041920;28;20199;-68
2022/03/04 09:23:46;;;;;;;18.60;12.20;;;;;;;2.94;45.54;94630.13;5037476;28;20209;-67
2022/03/04 09:26:32;;;;;;;19.87;12.70;;;;;;;3.14;44.92;94636.25;5032625;28;20653;-67
2022/03/04 09:29:18;;;;;;;19.43;10.83;;;;;;;2.91;44.31;94628.25;5044321;28;20222;-67
2022/03/04 09:32:04;;;;;;;14.93;10.70;;;;;;;3.39;45.17;94630.38;5042134;28;20227;-67
2022/03/04 09:34:51;;;;;;;18.60;11.60;;;;;;;3.32;43.85;94639.38;5048757;28;20202;-67
2022/03/04 09:37:38;;;;;;;19.93;12.60;;;;;;;3.65;44.38;94624.78;5047890;28;20190;-67
2022/03/04 09:40:24;;;;;;;19.10;11.10;;;;;;;3.54;43.41;94631.59;5039580;28;20210;-67
2022/03/04 09:43:10;;;;;;;19.73;11.77;;;;;;;3.61;42.90;94626.78;5035385;28;20211;-67
2022/03/04 09:45:56;;;;;;;17.13;10.73;;;;;;;3.84;42.44;94636.72;5038510;28;20282;-67
2022/03/04 09:48:45;;;;;;;16.80;11.67;;;;;;;3.71;42.59;94633.16;5039296;28;20206;-67
2022/03/04 09:51:31;;;;;;;17.70;11.57;;;;;;;3.49;43.23;94626.69;5040319;28;20305;-67
2022/03/04 09:54:17;;;;;;;16.00;10.13;;;;;;;3.64;42.27;94625.19;5042011;28;20598;-67
2022/03/04 09:57:04;;;;;;;20.40;11.13;;;;;;;3.89;42.24;94628.09;5044402;28;20578;-67
2022/03/04 09:59:50;;;;;;;17.20;10.97;;;;;;;3.91;42.77;94627.69;5039058;28;20226;-67
2022/03/04 10:02:35;;;;;;;22.43;12.00;;;;;;;4.01;42.92;94622.03;5042352;28;20569;-67
2022/03/04 10:05:21;;;;;;;16.97;11.07;;;;;;;4.21;42.20;94624.69;5043056;28;20269;-67
2022/03/04 10:08:18;;;;;;;20.37;11.93;;;;;;;4.56;42.02;94626.50;5045682;28;20247;-67
2022/03/04 10:11:04;;;;;;;21.03;12.00;;;;;;;4.25;42.14;94612.59;5045614;28;20743;-67
2022/03/04 10:13:53;;;;;;;17.50;12.00;;;;;;;4.60;41.95;94610.94;5038451;28;20248;-67
2022/03/04 10:16:41;;;;;;;19.33;11.67;;;;;;;4.58;42.14;94616.75;5051697;28;20293;-63
2022/03/04 10:19:28;;;;;;;17.40;11.87;;;;;;;4.26;42.19;94605.25;5050012;28;20714;-63
2022/03/04 10:22:13;;;;;;;17.23;12.00;;;;;;;4.55;42.06;94611.44;5039112;28;20249;-63
2022/03/04 10:25:01;;;;;;;19.60;11.70;;;;;;;4.56;41.53;94602.94;5050648;28;20206;-63
2022/03/04 10:27:48;;;;;;;18.33;11.37;;;;;;;4.78;42.60;94609.31;5048625;28;20186;-63
2022/03/04 10:30:36;;;;;;;17.30;11.10;;;;;;;5.02;41.59;94607.13;5040465;28;20210;-63
2022/03/04 10:33:28;;;;;;;20.47;12.43;;;;;;;4.77;41.47;94609.69;5051275;28;20648;-63
2022/03/04 10:36:15;;;;;;;17.97;11.67;;;;;;;4.86;40.83;94609.84;5040620;28;20294;-63
2022/03/04 10:39:08;;;;;;;23.27;12.40;;;;;;;4.80;40.32;94604.19;5031030;28;20194;-63
2022/03/04 10:41:55;;;;;;;21.97;12.73;;;;;;;4.48;41.05;94612.38;5044920;28;20697;-63
2022/03/04 10:44:41;;;;;;;23.57;12.13;;;;;;;4.66;40.67;94611.94;5043562;28;20569;-63
2022/03/04 10:47:49;;;;;;;18.23;11.47;;;;;;;4.52;39.76;94606.88;5046621;28;20195;-63
2022/03/04 10:50:43;;;;;;;17.23;10.57;;;;;;;4.72;39.45;94605.59;5039284;28;20198;-63
2022/03/04 10:53:32;;;;;;;18.13;12.00;;;;;;;4.61;39.17;94609.75;5049117;28;20221;-63
2022/03/04 10:56:18;;;;;;;23.17;11.43;;;;;;;4.82;39.01;94615.34;5049723;28;20230;-63
2022/03/04 10:59:07;;;;;;;20.30;12.03;;;;;;;4.74;40.08;94614.03;5043248;28;20256;-62
2022/03/04 11:01:55;;;;;;;20.93;12.73;;;;;;;4.66;40.46;94607.31;5039898;28;20214;-62
2022/03/04 11:04:41;;;;;;;22.20;11.17;;;;;;;4.69;38.77;94606.44;5043039;28;20201;-62
2022/03/04 11:07:27;;;;;;;18.30;12.17;;;;;;;4.63;38.63;94601.97;5046708;28;20267;-62
2022/03/04 11:10:13;;;;;;;15.37;9.93;;;;;;;4.83;39.22;94605.31;5042827;28;20245;-62
2022/03/04 11:13:04;;;;;;;19.77;11.50;;;;;;;5.06;39.31;94598.91;5056847;28;20214;-61
2022/03/04 11:15:51;;;;;;;19.37;11.00;;;;;;;4.69;38.56;94594.84;5039078;28;20187;-62
2022/03/04 11:18:37;;;;;;;18.97;11.90;;;;;;;4.54;39.49;94599.88;5037429;28;20602;-67
2022/03/04 11:21:23;;;;;;;17.57;11.50;;;;;;;4.82;39.67;94590.25;5048260;28;20198;-66
2022/03/04 11:24:09;;;;;;;18.33;12.30;;;;;;;4.76;38.86;94587.31;5048577;28;20200;-67
2022/03/04 11:27:03;;;;;;;18.80;11.27;;;;;;;5.19;38.99;94591.56;5035811;28;20278;-67
2022/03/04 11:29:49;;;;;;;21.73;11.63;;;;;;;5.30;38.38;94586.59;5043428;28;20198;-66
2022/03/04 11:32:36;;;;;;;17.90;10.70;;;;;;;5.43;38.29;94590.84;5045591;28;20455;-66
2022/03/04 11:35:55;;;;;;;14.70;9.87;;;;;;;5.35;37.06;94586.81;5043575;28;20650;-66
2022/03/04 11:38:43;;;;;;;17.87;10.13;;;;;;;5.02;37.47;94582.00;5046679;28;20190;-66
2022/03/04 11:41:37;;;;;;;16.70;10.47;;;;;;;5.36;37.48;94585.63;5045944;28;20199;-67
2022/03/04 11:44:24;;;;;;;13.20;9.10;;;;;;;5.54;37.23;94583.19;5050417;28;20201;-66
2022/03/04 11:47:13;;;;;;;16.13;9.90;;;;;;;5.34;36.36;94579.91;5066536;28;20197;-66
2022/03/04 11:50:23;;;;;;;13.83;9.10;;;;;;;5.23;37.33;94584.84;5038460;28;20205;-66
2022/03/04 11:53:20;;;;;;;13.80;8.93;;;;;;;5.17;36.96;94577.69;5044019;28;20234;-66
2022/03/04 11:56:15;;;;;;;13.83;9.17;;;;;;;5.19;37.01;94564.50;5042578;28;20248;-66
2022/03/04 11:59:18;;;;;;;14.07;9.77;;;;;;;5.21;37.29;94572.94;5028273;28;20299;-67
2022/03/04 12:02:04;;;;;;;14.47;9.60;;;;;;;5.15;36.83;94572.72;5041973;28;20313;-66
2022/03/04 12:05:12;;;;;;;13.07;8.47;;;;;;;4.92;36.61;94571.03;5046639;28;20270;-66
2022/03/04 12:07:58;;;;;;;16.33;8.40;;;;;;;5.06;36.41;94561.75;5054271;28;20248;-66
2022/03/04 12:10:50;;;;;;;14.37;9.07;;;;;;;5.05;36.77;94565.66;5037699;28;20273;-66
2022/03/04 12:13:41;;;;;;;14.27;8.80;;;;;;;5.27;36.38;94553.03;5041426;28;20210;-66
2022/03/04 12:16:46;;;;;;;15.40;10.10;;;;;;;5.30;36.27;94554.09;5059570;28;20209;-66
2022/03/04 12:19:36;;;;;;;15.77;10.47;;;;;;;5.41;36.29;94558.03;5041733;28;20194;-69
2022/03/04 12:22:25;;;;;;;17.63;10.60;;;;;;;5.27;36.47;94552.25;5047195;28;20681;-69
2022/03/04 12:25:11;;;;;;;15.23;10.40;;;;;;;5.52;37.24;94560.41;5031467;28;20186;-69
2022/03/04 12:27:57;;;;;;;15.77;10.37;;;;;;;5.42;37.12;94559.53;5027758;28;20280;-67
2022/03/04 12:30:43;;;;;;;20.03;10.90;;;;;;;5.63;36.93;94548.09;5043170;28;20274;-68
2022/03/04 12:33:34;;;;;;;16.07;10.70;;;;;;;5.73;37.13;94552.41;5038815;28;20265;-68
2022/03/04 12:36:20;;;;;;;18.57;11.53;;;;;;;5.99;39.57;94556.63;5037038;28;20187;-69
2022/03/04 12:39:06;;;;;;;17.60;12.20;;;;;;;5.73;37.75;94538.09;5042086;28;20199;-68
2022/03/04 12:41:56;;;;;;;17.90;11.33;;;;;;;6.14;38.99;94546.09;5028091;28;20538;-69
2022/03/04 12:44:44;;;;;;;20.83;11.77;;;;;;;5.81;36.51;94536.69;5041653;28;20268;-68
2022/03/04 12:47:30;;;;;;;18.57;11.53;;;;;;;6.11;37.06;94536.88;5047110;28;20210;-68
2022/03/04 12:50:22;;;;;;;19.17;11.33;;;;;;;6.09;36.45;94541.25;5045989;28;20281;-69